TVF86FD LFPO-LEVC
Flight info
| Callsign | TVF86FD |
|---|---|
| Flight time | 1h 36m |
| Altitude | 37000 |
| Route | ERIXU DCT ETAMO DCT GUERE DCT EVPOK DCT AGN DCT ANETO DCT POSSY DCT ROCME DCT SEROX DCT CASPE DCT MLA DCT CRETA DCT RIMES DCT SAURA |
| Aircraft | B738/M-SDFGHIJ1RWXY/LB1 |
Departure
| Time | 2026-05-08 09:01 |
|---|---|
| Airport | Paris-Orly Airport (LFPO) |
Arrival
| Time | 2026-05-08 10:38 |
|---|---|
| Airport | Valencia Airport (LEVC) |
| Time | Latitude | Longitude | Altitude | Speed | Heading |
|---|---|---|---|---|---|
| 2026-05-08 08:45 | 48.72779 | 2.35836 | 301 ft | 0 kts | 141° |
| 2026-05-08 08:54 | 48.72794 | 2.35814 | 302 ft | 4 kts | 110° |
| 2026-05-08 08:54 | 48.72796 | 2.35777 | 302 ft | 3 kts | 74° |
| 2026-05-08 08:54 | 48.72790 | 2.35744 | 302 ft | 4 kts | 75° |
| 2026-05-08 08:55 | 48.72783 | 2.35704 | 302 ft | 4 kts | 75° |
| 2026-05-08 08:55 | 48.72777 | 2.35667 | 301 ft | 4 kts | 84° |
| 2026-05-08 08:55 | 48.72778 | 2.35628 | 300 ft | 4 kts | 109° |
| 2026-05-08 08:55 | 48.72791 | 2.35594 | 299 ft | 4 kts | 140° |
| 2026-05-08 08:56 | 48.72812 | 2.35577 | 302 ft | 4 kts | 164° |
| 2026-05-08 08:56 | 48.72829 | 2.35570 | 299 ft | 0 kts | 164° |
| 2026-05-08 08:58 | 48.72823 | 2.35572 | 300 ft | 3 kts | 164° |
| 2026-05-08 08:58 | 48.72785 | 2.35588 | 300 ft | 9 kts | 164° |
| 2026-05-08 08:58 | 48.72704 | 2.35623 | 299 ft | 15 kts | 164° |
| 2026-05-08 08:58 | 48.72597 | 2.35666 | 299 ft | 16 kts | 165° |
| 2026-05-08 08:59 | 48.72493 | 2.35697 | 296 ft | 15 kts | 189° |
| 2026-05-08 08:59 | 48.72410 | 2.35619 | 296 ft | 15 kts | 170° |
| 2026-05-08 08:59 | 48.72313 | 2.35626 | 296 ft | 14 kts | 198° |
| 2026-05-08 08:59 | 48.72221 | 2.35604 | 296 ft | 13 kts | 170° |
| 2026-05-08 09:00 | 48.72134 | 2.35640 | 297 ft | 13 kts | 164° |
| 2026-05-08 09:00 | 48.72056 | 2.35703 | 299 ft | 13 kts | 137° |
| 2026-05-08 09:00 | 48.71999 | 2.35834 | 298 ft | 17 kts | 119° |
| 2026-05-08 09:00 | 48.71967 | 2.35994 | 296 ft | 17 kts | 75° |
| 2026-05-08 09:01 | 48.72006 | 2.36210 | 299 ft | 41 kts | 74° |
| 2026-05-08 09:01 | 48.72151 | 2.36991 | 298 ft | 111 kts | 75° |
| 2026-05-08 09:01 | 48.72403 | 2.38404 | 398 ft | 157 kts | 75° |
| 2026-05-08 09:01 | 48.72699 | 2.40039 | 1089 ft | 164 kts | 73° |
| 2026-05-08 09:02 | 48.73009 | 2.41672 | 2013 ft | 163 kts | 74° |
| 2026-05-08 09:02 | 48.73331 | 2.43374 | 2803 ft | 165 kts | 75° |
| 2026-05-08 09:02 | 48.73653 | 2.45091 | 3506 ft | 172 kts | 75° |
| 2026-05-08 09:02 | 48.73976 | 2.46889 | 4019 ft | 191 kts | 78° |
| 2026-05-08 09:03 | 48.74106 | 2.49020 | 4266 ft | 216 kts | 86° |
| 2026-05-08 09:03 | 48.74182 | 2.51406 | 4509 ft | 235 kts | 86° |
| 2026-05-08 09:03 | 48.74267 | 2.53990 | 4721 ft | 258 kts | 86° |
| 2026-05-08 09:03 | 48.74184 | 2.56764 | 5302 ft | 269 kts | 106° |
| 2026-05-08 09:04 | 48.73232 | 2.59180 | 6119 ft | 271 kts | 136° |
| 2026-05-08 09:04 | 48.71616 | 2.60644 | 6901 ft | 275 kts | 162° |
| 2026-05-08 09:04 | 48.69736 | 2.61270 | 7642 ft | 279 kts | 174° |
| 2026-05-08 09:04 | 48.67827 | 2.61026 | 8373 ft | 277 kts | 205° |
| 2026-05-08 09:05 | 48.66198 | 2.59487 | 9163 ft | 277 kts | 218° |
| 2026-05-08 09:05 | 48.64634 | 2.57757 | 9955 ft | 281 kts | 218° |
| 2026-05-08 09:05 | 48.63037 | 2.55994 | 10482 ft | 292 kts | 217° |
| 2026-05-08 09:05 | 48.61321 | 2.54130 | 10649 ft | 315 kts | 217° |
| 2026-05-08 09:06 | 48.59472 | 2.52154 | 10823 ft | 336 kts | 217° |
| 2026-05-08 09:06 | 48.57663 | 2.50248 | 11227 ft | 346 kts | 216° |
| 2026-05-08 09:06 | 48.55666 | 2.48166 | 11834 ft | 351 kts | 215° |
| 2026-05-08 09:06 | 48.53648 | 2.46079 | 12598 ft | 352 kts | 215° |
| 2026-05-08 09:07 | 48.51641 | 2.44011 | 13326 ft | 355 kts | 214° |
| 2026-05-08 09:07 | 48.49585 | 2.41897 | 14011 ft | 360 kts | 214° |
| 2026-05-08 09:07 | 48.47508 | 2.39766 | 14648 ft | 363 kts | 214° |
| 2026-05-08 09:07 | 48.45408 | 2.37612 | 15338 ft | 366 kts | 214° |
| 2026-05-08 09:08 | 48.43339 | 2.35494 | 16026 ft | 369 kts | 214° |
| 2026-05-08 09:08 | 48.41211 | 2.33316 | 16714 ft | 372 kts | 215° |
| 2026-05-08 09:08 | 48.39060 | 2.31117 | 17396 ft | 375 kts | 215° |
| 2026-05-08 09:08 | 48.36892 | 2.28900 | 18053 ft | 378 kts | 215° |
| 2026-05-08 09:09 | 48.34706 | 2.26670 | 18649 ft | 382 kts | 215° |
| 2026-05-08 09:09 | 48.32499 | 2.24423 | 19228 ft | 384 kts | 214° |
| 2026-05-08 09:09 | 48.30134 | 2.22519 | 19767 ft | 389 kts | 200° |
| 2026-05-08 09:09 | 48.27476 | 2.21666 | 20341 ft | 394 kts | 186° |
| 2026-05-08 09:10 | 48.24722 | 2.21827 | 20890 ft | 400 kts | 173° |
| 2026-05-08 09:10 | 48.22898 | 2.22290 | 21258 ft | 402 kts | 172° |
| 2026-05-08 09:10 | 48.20132 | 2.23035 | 21737 ft | 406 kts | 172° |
| 2026-05-08 09:10 | 48.17341 | 2.23777 | 22245 ft | 409 kts | 172° |
| 2026-05-08 09:11 | 48.14523 | 2.24491 | 22757 ft | 412 kts | 173° |
| 2026-05-08 09:11 | 48.11685 | 2.25185 | 23267 ft | 414 kts | 173° |
| 2026-05-08 09:11 | 48.08827 | 2.25871 | 23732 ft | 417 kts | 174° |
| 2026-05-08 09:11 | 48.05937 | 2.26316 | 24115 ft | 419 kts | 179° |
| 2026-05-08 09:12 | 48.03017 | 2.26525 | 24498 ft | 421 kts | 180° |
| 2026-05-08 09:12 | 48.00076 | 2.26672 | 24867 ft | 424 kts | 181° |
| 2026-05-08 09:12 | 47.97113 | 2.26808 | 25199 ft | 428 kts | 181° |
| 2026-05-08 09:12 | 47.94117 | 2.26956 | 25525 ft | 432 kts | 181° |
| 2026-05-08 09:13 | 47.91102 | 2.27119 | 25896 ft | 435 kts | 180° |
| 2026-05-08 09:13 | 47.88069 | 2.27296 | 26265 ft | 437 kts | 180° |
| 2026-05-08 09:13 | 47.85021 | 2.27483 | 26610 ft | 440 kts | 180° |
| 2026-05-08 09:13 | 47.81952 | 2.27676 | 26934 ft | 443 kts | 180° |
| 2026-05-08 09:14 | 47.78860 | 2.27873 | 27245 ft | 446 kts | 180° |
| 2026-05-08 09:14 | 47.75744 | 2.28071 | 27470 ft | 451 kts | 180° |
| 2026-05-08 09:14 | 47.72591 | 2.28271 | 27700 ft | 455 kts | 180° |
| 2026-05-08 09:14 | 47.69418 | 2.28473 | 28039 ft | 457 kts | 181° |
| 2026-05-08 09:15 | 47.66233 | 2.28676 | 28365 ft | 459 kts | 181° |
| 2026-05-08 09:15 | 47.63028 | 2.28879 | 28648 ft | 462 kts | 181° |
| 2026-05-08 09:15 | 47.59804 | 2.29083 | 28909 ft | 465 kts | 181° |
| 2026-05-08 09:15 | 47.56561 | 2.29287 | 29166 ft | 468 kts | 181° |
| 2026-05-08 09:16 | 47.53293 | 2.29492 | 29372 ft | 472 kts | 181° |
| 2026-05-08 09:16 | 47.50008 | 2.29699 | 29712 ft | 473 kts | 181° |
| 2026-05-08 09:16 | 47.46729 | 2.29907 | 30156 ft | 471 kts | 181° |
| 2026-05-08 09:16 | 47.43464 | 2.30113 | 30532 ft | 469 kts | 181° |
| 2026-05-08 09:17 | 47.40203 | 2.30319 | 30859 ft | 469 kts | 181° |
| 2026-05-08 09:17 | 47.36936 | 2.30523 | 31165 ft | 469 kts | 181° |
| 2026-05-08 09:17 | 47.33669 | 2.30727 | 31398 ft | 471 kts | 181° |
| 2026-05-08 09:17 | 47.30389 | 2.30930 | 31604 ft | 474 kts | 181° |
| 2026-05-08 09:18 | 47.27097 | 2.31135 | 31953 ft | 472 kts | 181° |
| 2026-05-08 09:18 | 47.23819 | 2.31340 | 32360 ft | 470 kts | 181° |
| 2026-05-08 09:18 | 47.20556 | 2.31544 | 32726 ft | 469 kts | 182° |
| 2026-05-08 09:18 | 47.17299 | 2.31747 | 33021 ft | 469 kts | 182° |
| 2026-05-08 09:19 | 47.14036 | 2.31949 | 33259 ft | 470 kts | 182° |
| 2026-05-08 09:19 | 47.10760 | 2.32150 | 33455 ft | 472 kts | 182° |
| 2026-05-08 09:19 | 47.07478 | 2.32353 | 33759 ft | 472 kts | 182° |
| 2026-05-08 09:19 | 47.04246 | 2.32554 | 34112 ft | 470 kts | 182° |
| 2026-05-08 09:20 | 47.00987 | 2.32756 | 34420 ft | 468 kts | 182° |
| 2026-05-08 09:20 | 46.97693 | 2.32960 | 34682 ft | 467 kts | 182° |
| 2026-05-08 09:20 | 46.94449 | 2.33159 | 34912 ft | 467 kts | 182° |
| 2026-05-08 09:20 | 46.91195 | 2.33359 | 35102 ft | 468 kts | 182° |
| 2026-05-08 09:21 | 46.87943 | 2.33558 | 35330 ft | 468 kts | 182° |
| 2026-05-08 09:21 | 46.84746 | 2.33614 | 35602 ft | 463 kts | 188° |
| 2026-05-08 09:22 | 46.66417 | 2.27016 | 37016 ft | 451 kts | 199° |
| 2026-05-08 09:23 | 46.63369 | 2.25830 | 36994 ft | 454 kts | 199° |
| 2026-05-08 09:23 | 46.57276 | 2.23487 | 36984 ft | 451 kts | 199° |
| 2026-05-08 09:24 | 46.51226 | 2.21173 | 36984 ft | 448 kts | 199° |
| 2026-05-08 09:24 | 46.45218 | 2.18876 | 36997 ft | 445 kts | 199° |
| 2026-05-08 09:25 | 46.39227 | 2.16587 | 36997 ft | 445 kts | 199° |
| 2026-05-08 09:25 | 46.33235 | 2.14303 | 36981 ft | 446 kts | 199° |
| 2026-05-08 09:26 | 46.27230 | 2.12020 | 37006 ft | 447 kts | 199° |
| 2026-05-08 09:26 | 46.21199 | 2.09702 | 36990 ft | 448 kts | 202° |
| 2026-05-08 09:27 | 46.15694 | 2.05772 | 36985 ft | 438 kts | 219° |
| 2026-05-08 09:27 | 46.10753 | 2.00701 | 36979 ft | 440 kts | 220° |
| 2026-05-08 09:28 | 46.05765 | 1.95588 | 36997 ft | 441 kts | 220° |
| 2026-05-08 09:28 | 46.00742 | 1.90511 | 36983 ft | 442 kts | 220° |
| 2026-05-08 09:29 | 45.95703 | 1.85457 | 36983 ft | 441 kts | 219° |
| 2026-05-08 09:29 | 45.90677 | 1.80434 | 36981 ft | 439 kts | 220° |
| 2026-05-08 09:30 | 45.85675 | 1.75445 | 36987 ft | 437 kts | 220° |
| 2026-05-08 09:30 | 45.80698 | 1.70489 | 36988 ft | 435 kts | 220° |
| 2026-05-08 09:31 | 45.75741 | 1.65562 | 36976 ft | 433 kts | 220° |
| 2026-05-08 09:31 | 45.70803 | 1.60666 | 36985 ft | 431 kts | 220° |
| 2026-05-08 09:32 | 45.65881 | 1.55797 | 36985 ft | 429 kts | 220° |
| 2026-05-08 09:32 | 45.60979 | 1.50956 | 36985 ft | 428 kts | 220° |
| 2026-05-08 09:33 | 45.56091 | 1.46139 | 36965 ft | 426 kts | 219° |
| 2026-05-08 09:33 | 45.51218 | 1.41349 | 36982 ft | 425 kts | 219° |
| 2026-05-08 09:34 | 45.46026 | 1.37266 | 36983 ft | 433 kts | 206° |
| 2026-05-08 09:34 | 45.40145 | 1.35096 | 36985 ft | 438 kts | 198° |
| 2026-05-08 09:35 | 45.34189 | 1.33244 | 36980 ft | 438 kts | 198° |
| 2026-05-08 09:35 | 45.28242 | 1.31367 | 36995 ft | 438 kts | 198° |
| 2026-05-08 09:36 | 45.22338 | 1.29471 | 36988 ft | 438 kts | 198° |
| 2026-05-08 09:36 | 45.16398 | 1.27553 | 36980 ft | 438 kts | 198° |
| 2026-05-08 09:37 | 45.10444 | 1.25632 | 36979 ft | 438 kts | 198° |
| 2026-05-08 09:37 | 45.04503 | 1.23722 | 36986 ft | 437 kts | 198° |
| 2026-05-08 09:38 | 44.98573 | 1.21819 | 36965 ft | 437 kts | 198° |
| 2026-05-08 09:38 | 44.92650 | 1.19922 | 36971 ft | 436 kts | 198° |
| 2026-05-08 09:39 | 44.86741 | 1.18035 | 36974 ft | 435 kts | 198° |
| 2026-05-08 09:39 | 44.80848 | 1.16155 | 36977 ft | 434 kts | 198° |
| 2026-05-08 09:40 | 44.74958 | 1.14281 | 36970 ft | 433 kts | 198° |
| 2026-05-08 09:40 | 44.69083 | 1.12415 | 36974 ft | 432 kts | 198° |
| 2026-05-08 09:41 | 44.63215 | 1.10556 | 36973 ft | 432 kts | 198° |
| 2026-05-08 09:41 | 44.57353 | 1.08702 | 36968 ft | 431 kts | 198° |
| 2026-05-08 09:42 | 44.51501 | 1.06855 | 36967 ft | 431 kts | 198° |
| 2026-05-08 09:42 | 44.45656 | 1.05015 | 36971 ft | 430 kts | 198° |
| 2026-05-08 09:43 | 44.39823 | 1.03181 | 36958 ft | 429 kts | 198° |
| 2026-05-08 09:43 | 44.34002 | 1.01355 | 36979 ft | 428 kts | 198° |
| 2026-05-08 09:44 | 44.28193 | 0.99537 | 36973 ft | 427 kts | 198° |
| 2026-05-08 09:44 | 44.22394 | 0.97726 | 36957 ft | 427 kts | 198° |
| 2026-05-08 09:45 | 44.16607 | 0.95922 | 36970 ft | 426 kts | 197° |
| 2026-05-08 09:45 | 44.10824 | 0.94122 | 36963 ft | 425 kts | 197° |
| 2026-05-08 09:46 | 44.05089 | 0.92341 | 36962 ft | 425 kts | 197° |
| 2026-05-08 09:46 | 43.99320 | 0.90553 | 36956 ft | 424 kts | 197° |
| 2026-05-08 09:47 | 43.93555 | 0.88769 | 36955 ft | 424 kts | 197° |
| 2026-05-08 09:47 | 43.87796 | 0.87000 | 36961 ft | 424 kts | 197° |
| 2026-05-08 09:48 | 43.82002 | 0.85413 | 36940 ft | 425 kts | 195° |
| 2026-05-08 09:48 | 43.76201 | 0.83895 | 36946 ft | 424 kts | 195° |
| 2026-05-08 09:49 | 43.70407 | 0.82367 | 36955 ft | 424 kts | 195° |
| 2026-05-08 09:49 | 43.64624 | 0.80829 | 36950 ft | 423 kts | 195° |
| 2026-05-08 09:50 | 43.58845 | 0.79289 | 36952 ft | 422 kts | 195° |
| 2026-05-08 09:50 | 43.53078 | 0.77755 | 36948 ft | 422 kts | 195° |
| 2026-05-08 09:51 | 43.47314 | 0.76224 | 36953 ft | 421 kts | 195° |
| 2026-05-08 09:51 | 43.41561 | 0.74700 | 36925 ft | 420 kts | 194° |
| 2026-05-08 09:52 | 43.35829 | 0.73185 | 36937 ft | 419 kts | 194° |
| 2026-05-08 09:52 | 43.30119 | 0.71678 | 36937 ft | 417 kts | 194° |
| 2026-05-08 09:53 | 43.24466 | 0.70189 | 36941 ft | 416 kts | 194° |
| 2026-05-08 09:53 | 43.18794 | 0.68698 | 36938 ft | 415 kts | 194° |
| 2026-05-08 09:54 | 43.13131 | 0.67211 | 36940 ft | 414 kts | 194° |
| 2026-05-08 09:54 | 43.07480 | 0.65731 | 36941 ft | 414 kts | 194° |
| 2026-05-08 09:55 | 43.01823 | 0.64251 | 36945 ft | 414 kts | 194° |
| 2026-05-08 09:55 | 42.96173 | 0.62777 | 36945 ft | 414 kts | 194° |
| 2026-05-08 09:56 | 42.90518 | 0.61303 | 36955 ft | 414 kts | 194° |
| 2026-05-08 09:56 | 42.84864 | 0.59834 | 36975 ft | 413 kts | 194° |
| 2026-05-08 09:57 | 42.76385 | 0.57634 | 36976 ft | 413 kts | 194° |
| 2026-05-08 09:57 | 42.70736 | 0.56152 | 36990 ft | 412 kts | 197° |
| 2026-05-08 09:58 | 42.66289 | 0.53983 | 36992 ft | 408 kts | 208° |
| 2026-05-08 09:58 | 42.61161 | 0.50635 | 36984 ft | 409 kts | 207° |
| 2026-05-08 09:59 | 42.56029 | 0.47321 | 36997 ft | 409 kts | 207° |
| 2026-05-08 09:59 | 42.50888 | 0.44031 | 36997 ft | 408 kts | 207° |
| 2026-05-08 10:00 | 42.45821 | 0.40803 | 37002 ft | 408 kts | 207° |
| 2026-05-08 10:00 | 42.40681 | 0.37536 | 37000 ft | 408 kts | 207° |
| 2026-05-08 10:01 | 42.35542 | 0.34274 | 37020 ft | 408 kts | 207° |
| 2026-05-08 10:01 | 42.30393 | 0.31014 | 37010 ft | 409 kts | 206° |
| 2026-05-08 10:02 | 42.25233 | 0.27750 | 37015 ft | 410 kts | 206° |
| 2026-05-08 10:02 | 42.20091 | 0.24504 | 37013 ft | 411 kts | 206° |
| 2026-05-08 10:03 | 42.14904 | 0.21235 | 37008 ft | 412 kts | 206° |
| 2026-05-08 10:03 | 42.09707 | 0.17991 | 37003 ft | 412 kts | 204° |
| 2026-05-08 10:04 | 42.04123 | 0.16185 | 37008 ft | 416 kts | 189° |
| 2026-05-08 10:04 | 41.98303 | 0.16288 | 37010 ft | 420 kts | 180° |
| 2026-05-08 10:05 | 41.92474 | 0.16872 | 37006 ft | 419 kts | 180° |
| 2026-05-08 10:05 | 41.86669 | 0.17414 | 37013 ft | 418 kts | 180° |
| 2026-05-08 10:06 | 41.80874 | 0.17922 | 37011 ft | 417 kts | 180° |
| 2026-05-08 10:06 | 41.75099 | 0.18426 | 37016 ft | 415 kts | 180° |
| 2026-05-08 10:07 | 41.69337 | 0.18925 | 37011 ft | 415 kts | 180° |
| 2026-05-08 10:07 | 41.63583 | 0.19420 | 37007 ft | 414 kts | 180° |
| 2026-05-08 10:08 | 41.57836 | 0.19915 | 37014 ft | 413 kts | 180° |
| 2026-05-08 10:08 | 41.52098 | 0.20409 | 37007 ft | 413 kts | 180° |
| 2026-05-08 10:09 | 41.46362 | 0.20901 | 37004 ft | 413 kts | 180° |
| 2026-05-08 10:09 | 41.40630 | 0.21392 | 37013 ft | 413 kts | 180° |
| 2026-05-08 10:10 | 41.34905 | 0.21758 | 37010 ft | 409 kts | 186° |
| 2026-05-08 10:10 | 41.29334 | 0.20586 | 37009 ft | 405 kts | 194° |
| 2026-05-08 10:11 | 41.23793 | 0.19143 | 37005 ft | 406 kts | 193° |
| 2026-05-08 10:11 | 41.18228 | 0.17784 | 36993 ft | 407 kts | 193° |
| 2026-05-08 10:12 | 41.15455 | 0.17104 | 36490 ft | 413 kts | 193° |
| 2026-05-08 10:12 | 41.12606 | 0.16376 | 35928 ft | 410 kts | 195° |
| 2026-05-08 10:12 | 41.09889 | 0.15397 | 35198 ft | 411 kts | 198° |
| 2026-05-08 10:12 | 41.07150 | 0.14276 | 34549 ft | 412 kts | 199° |
| 2026-05-08 10:13 | 41.04415 | 0.13132 | 33861 ft | 413 kts | 198° |
| 2026-05-08 10:13 | 41.01674 | 0.11998 | 33254 ft | 411 kts | 198° |
| 2026-05-08 10:13 | 40.98960 | 0.10893 | 32757 ft | 406 kts | 198° |
| 2026-05-08 10:13 | 40.96267 | 0.09812 | 32270 ft | 402 kts | 198° |
| 2026-05-08 10:14 | 40.93601 | 0.08748 | 31802 ft | 398 kts | 198° |
| 2026-05-08 10:14 | 40.90965 | 0.07699 | 31343 ft | 394 kts | 198° |
| 2026-05-08 10:14 | 40.88354 | 0.06661 | 30891 ft | 390 kts | 198° |
| 2026-05-08 10:14 | 40.85768 | 0.05630 | 30398 ft | 387 kts | 198° |
| 2026-05-08 10:15 | 40.83194 | 0.04596 | 29889 ft | 385 kts | 198° |
| 2026-05-08 10:15 | 40.80644 | 0.03568 | 29369 ft | 381 kts | 198° |
| 2026-05-08 10:15 | 40.78123 | 0.02552 | 28903 ft | 377 kts | 198° |
| 2026-05-08 10:15 | 40.75633 | 0.01551 | 28456 ft | 372 kts | 198° |
| 2026-05-08 10:16 | 40.73175 | 0.00563 | 28013 ft | 367 kts | 198° |
| 2026-05-08 10:16 | 40.70743 | -0.00414 | 27562 ft | 363 kts | 198° |
| 2026-05-08 10:16 | 40.68334 | -0.01381 | 27130 ft | 360 kts | 198° |
| 2026-05-08 10:16 | 40.65953 | -0.02336 | 26686 ft | 356 kts | 199° |
| 2026-05-08 10:17 | 40.63591 | -0.03283 | 26268 ft | 353 kts | 198° |
| 2026-05-08 10:17 | 40.61253 | -0.04219 | 25847 ft | 350 kts | 198° |
| 2026-05-08 10:17 | 40.58936 | -0.05145 | 25404 ft | 347 kts | 199° |
| 2026-05-08 10:17 | 40.56638 | -0.06063 | 25002 ft | 344 kts | 199° |
| 2026-05-08 10:18 | 40.54362 | -0.06968 | 24685 ft | 338 kts | 199° |
| 2026-05-08 10:18 | 40.52124 | -0.07853 | 24306 ft | 335 kts | 199° |
| 2026-05-08 10:18 | 40.49898 | -0.08732 | 23911 ft | 332 kts | 199° |
| 2026-05-08 10:18 | 40.47692 | -0.09602 | 23507 ft | 330 kts | 199° |
| 2026-05-08 10:19 | 40.45498 | -0.10468 | 23028 ft | 328 kts | 199° |
| 2026-05-08 10:19 | 40.43322 | -0.11326 | 22602 ft | 325 kts | 199° |
| 2026-05-08 10:19 | 40.41164 | -0.12177 | 22217 ft | 322 kts | 199° |
| 2026-05-08 10:20 | 40.36884 | -0.13864 | 21398 ft | 320 kts | 198° |
| 2026-05-08 10:20 | 40.34769 | -0.14696 | 21012 ft | 322 kts | 198° |
| 2026-05-08 10:20 | 40.32570 | -0.15562 | 20603 ft | 332 kts | 198° |
| 2026-05-08 10:20 | 40.30337 | -0.16441 | 20191 ft | 336 kts | 198° |
| 2026-05-08 10:21 | 40.28098 | -0.17320 | 19763 ft | 335 kts | 198° |
| 2026-05-08 10:21 | 40.25876 | -0.18191 | 19344 ft | 332 kts | 198° |
| 2026-05-08 10:21 | 40.23648 | -0.19082 | 18628 ft | 339 kts | 198° |
| 2026-05-08 10:21 | 40.21398 | -0.20007 | 18103 ft | 339 kts | 198° |
| 2026-05-08 10:22 | 40.19154 | -0.20934 | 17636 ft | 337 kts | 198° |
| 2026-05-08 10:22 | 40.16927 | -0.21853 | 17192 ft | 334 kts | 198° |
| 2026-05-08 10:22 | 40.14718 | -0.22762 | 16765 ft | 331 kts | 198° |
| 2026-05-08 10:22 | 40.12529 | -0.23661 | 16374 ft | 329 kts | 198° |
| 2026-05-08 10:23 | 40.10352 | -0.24554 | 15950 ft | 327 kts | 198° |
| 2026-05-08 10:23 | 40.08188 | -0.25440 | 15568 ft | 325 kts | 197° |
| 2026-05-08 10:23 | 40.06036 | -0.26321 | 15172 ft | 323 kts | 197° |
| 2026-05-08 10:23 | 40.03893 | -0.27197 | 14798 ft | 322 kts | 197° |
| 2026-05-08 10:24 | 40.01759 | -0.28068 | 14392 ft | 321 kts | 197° |
| 2026-05-08 10:24 | 39.99625 | -0.28934 | 13964 ft | 321 kts | 197° |
| 2026-05-08 10:24 | 39.97452 | -0.29757 | 13330 ft | 327 kts | 195° |
| 2026-05-08 10:24 | 39.95269 | -0.30554 | 12878 ft | 325 kts | 195° |
| 2026-05-08 10:25 | 39.93099 | -0.31343 | 12451 ft | 323 kts | 195° |
| 2026-05-08 10:25 | 39.90947 | -0.32128 | 12058 ft | 320 kts | 195° |
| 2026-05-08 10:25 | 39.88815 | -0.32909 | 11683 ft | 317 kts | 195° |
| 2026-05-08 10:25 | 39.86701 | -0.33686 | 11305 ft | 314 kts | 196° |
| 2026-05-08 10:26 | 39.84603 | -0.34457 | 10924 ft | 313 kts | 196° |
| 2026-05-08 10:26 | 39.82518 | -0.35223 | 10601 ft | 309 kts | 195° |
| 2026-05-08 10:26 | 39.80513 | -0.35961 | 10487 ft | 299 kts | 197° |
| 2026-05-08 10:26 | 39.78706 | -0.37208 | 10324 ft | 289 kts | 225° |
| 2026-05-08 10:27 | 39.77779 | -0.39444 | 10216 ft | 283 kts | 258° |
| 2026-05-08 10:27 | 39.77971 | -0.41944 | 10112 ft | 280 kts | 286° |
| 2026-05-08 10:27 | 39.78487 | -0.44290 | 10014 ft | 269 kts | 276° |
| 2026-05-08 10:27 | 39.78638 | -0.46682 | 9748 ft | 264 kts | 267° |
| 2026-05-08 10:28 | 39.78565 | -0.49060 | 9455 ft | 262 kts | 263° |
| 2026-05-08 10:28 | 39.78399 | -0.51405 | 9154 ft | 259 kts | 262° |
| 2026-05-08 10:28 | 39.78179 | -0.53705 | 8925 ft | 255 kts | 259° |
| 2026-05-08 10:28 | 39.77875 | -0.55974 | 8637 ft | 254 kts | 256° |
| 2026-05-08 10:29 | 39.77475 | -0.58206 | 8361 ft | 253 kts | 253° |
| 2026-05-08 10:29 | 39.76978 | -0.60394 | 8093 ft | 252 kts | 249° |
| 2026-05-08 10:29 | 39.76383 | -0.62534 | 7812 ft | 252 kts | 246° |
| 2026-05-08 10:29 | 39.75694 | -0.64621 | 7532 ft | 251 kts | 243° |
| 2026-05-08 10:30 | 39.74914 | -0.66648 | 7271 ft | 250 kts | 240° |
| 2026-05-08 10:30 | 39.74047 | -0.68605 | 7002 ft | 250 kts | 236° |
| 2026-05-08 10:30 | 39.73094 | -0.70493 | 6735 ft | 249 kts | 233° |
| 2026-05-08 10:30 | 39.72061 | -0.72301 | 6470 ft | 249 kts | 230° |
| 2026-05-08 10:31 | 39.70949 | -0.74027 | 6188 ft | 249 kts | 227° |
| 2026-05-08 10:31 | 39.69774 | -0.75679 | 5916 ft | 248 kts | 224° |
| 2026-05-08 10:31 | 39.68545 | -0.77243 | 5667 ft | 247 kts | 220° |
| 2026-05-08 10:31 | 39.67253 | -0.78701 | 5395 ft | 246 kts | 217° |
| 2026-05-08 10:32 | 39.65809 | -0.79762 | 5240 ft | 235 kts | 189° |
| 2026-05-08 10:32 | 39.64234 | -0.79692 | 5155 ft | 225 kts | 161° |
| 2026-05-08 10:32 | 39.62872 | -0.78737 | 5078 ft | 225 kts | 138° |
| 2026-05-08 10:32 | 39.61835 | -0.77190 | 4869 ft | 230 kts | 131° |
| 2026-05-08 10:33 | 39.60634 | -0.75799 | 4553 ft | 232 kts | 142° |
| 2026-05-08 10:33 | 39.59411 | -0.74471 | 4365 ft | 227 kts | 139° |
| 2026-05-08 10:33 | 39.58346 | -0.72991 | 4043 ft | 225 kts | 119° |
| 2026-05-08 10:33 | 39.57740 | -0.71158 | 3794 ft | 219 kts | 115° |
| 2026-05-08 10:34 | 39.57053 | -0.69406 | 3502 ft | 217 kts | 117° |
| 2026-05-08 10:34 | 39.56375 | -0.67679 | 3233 ft | 213 kts | 116° |
| 2026-05-08 10:34 | 39.55723 | -0.65977 | 2953 ft | 208 kts | 115° |
| 2026-05-08 10:34 | 39.55088 | -0.64312 | 2671 ft | 202 kts | 115° |
| 2026-05-08 10:35 | 39.54482 | -0.62726 | 2388 ft | 190 kts | 114° |
| 2026-05-08 10:35 | 39.53921 | -0.61257 | 2146 ft | 176 kts | 115° |
| 2026-05-08 10:35 | 39.53398 | -0.59892 | 1973 ft | 159 kts | 114° |
| 2026-05-08 10:35 | 39.52932 | -0.58665 | 1723 ft | 151 kts | 114° |
| 2026-05-08 10:36 | 39.52481 | -0.57462 | 1549 ft | 147 kts | 115° |
| 2026-05-08 10:36 | 39.52009 | -0.56272 | 1356 ft | 152 kts | 114° |
| 2026-05-08 10:36 | 39.51552 | -0.55055 | 1119 ft | 150 kts | 114° |
| 2026-05-08 10:36 | 39.51098 | -0.53867 | 891 ft | 142 kts | 116° |
| 2026-05-08 10:37 | 39.50655 | -0.52710 | 730 ft | 147 kts | 115° |
| 2026-05-08 10:37 | 39.50215 | -0.51538 | 531 ft | 143 kts | 116° |
| 2026-05-08 10:37 | 39.49783 | -0.50395 | 328 ft | 141 kts | 116° |
| 2026-05-08 10:37 | 39.49357 | -0.49276 | 211 ft | 131 kts | 117° |
| 2026-05-08 10:38 | 39.49017 | -0.48385 | 208 ft | 89 kts | 116° |
| 2026-05-08 10:38 | 39.48813 | -0.47851 | 217 ft | 45 kts | 116° |
| 2026-05-08 10:38 | 39.48730 | -0.47630 | 219 ft | 21 kts | 116° |
| 2026-05-08 10:38 | 39.48667 | -0.47460 | 216 ft | 21 kts | 107° |
| 2026-05-08 10:39 | 39.48666 | -0.47278 | 213 ft | 20 kts | 74° |
| 2026-05-08 10:39 | 39.48718 | -0.47188 | 212 ft | 7 kts | 28° |
| 2026-05-08 10:39 | 39.48756 | -0.47175 | 211 ft | 5 kts | 360° |
| 2026-05-08 10:39 | 39.48791 | -0.47190 | 213 ft | 5 kts | 336° |
| 2026-05-08 10:40 | 39.48828 | -0.47211 | 211 ft | 7 kts | 336° |
| 2026-05-08 10:40 | 39.48902 | -0.47253 | 210 ft | 15 kts | 326° |
| 2026-05-08 10:40 | 39.48957 | -0.47368 | 210 ft | 15 kts | 296° |
| 2026-05-08 10:40 | 39.48995 | -0.47478 | 211 ft | 9 kts | 268° |
| 2026-05-08 10:41 | 39.48955 | -0.47522 | 212 ft | 4 kts | 205° |
| 2026-05-08 10:41 | 39.48944 | -0.47530 | 212 ft | 0 kts | 205° |